sensor_id;sensor_type;location;lat;lon;timestamp;P1;durP1;ratioP1;P2;durP2;ratioP2
10463;SDS011;5279;42.048;24.638;2023-11-25T00:00:23;31.10;;;22.47;;
10463;SDS011;5279;42.048;24.638;2023-11-25T00:02:52;37.33;;;24.20;;
10463;SDS011;5279;42.048;24.638;2023-11-25T00:05:18;35.07;;;24.40;;
10463;SDS011;5279;42.048;24.638;2023-11-25T00:07:46;34.67;;;24.37;;
10463;SDS011;5279;42.048;24.638;2023-11-25T00:10:12;36.43;;;23.50;;
10463;SDS011;5279;42.048;24.638;2023-11-25T00:12:39;50.07;;;25.70;;
10463;SDS011;5279;42.048;24.638;2023-11-25T00:15:08;44.50;;;25.80;;
10463;SDS011;5279;42.048;24.638;2023-11-25T00:17:35;43.13;;;26.53;;
10463;SDS011;5279;42.048;24.638;2023-11-25T00:20:03;38.00;;;26.60;;
10463;SDS011;5279;42.048;24.638;2023-11-25T00:22:30;38.70;;;27.47;;
10463;SDS011;5279;42.048;24.638;2023-11-25T00:24:57;36.40;;;24.37;;
10463;SDS011;5279;42.048;24.638;2023-11-25T00:27:24;41.00;;;26.93;;
10463;SDS011;5279;42.048;24.638;2023-11-25T00:29:51;39.50;;;26.27;;
10463;SDS011;5279;42.048;24.638;2023-11-25T00:32:19;41.73;;;26.13;;
10463;SDS011;5279;42.048;24.638;2023-11-25T00:34:46;34.27;;;23.17;;
10463;SDS011;5279;42.048;24.638;2023-11-25T00:37:13;34.37;;;23.73;;
10463;SDS011;5279;42.048;24.638;2023-11-25T00:39:41;34.73;;;23.33;;
10463;SDS011;5279;42.048;24.638;2023-11-25T00:42:08;35.03;;;24.40;;
10463;SDS011;5279;42.048;24.638;2023-11-25T00:44:35;32.70;;;22.83;;
10463;SDS011;5279;42.048;24.638;2023-11-25T00:47:03;28.13;;;19.90;;
10463;SDS011;5279;42.048;24.638;2023-11-25T00:49:37;33.00;;;23.00;;
10463;SDS011;5279;42.048;24.638;2023-11-25T00:52:06;33.93;;;23.63;;
10463;SDS011;5279;42.048;24.638;2023-11-25T00:54:33;28.87;;;21.80;;
10463;SDS011;5279;42.048;24.638;2023-11-25T00:57:00;32.03;;;22.00;;
10463;SDS011;5279;42.048;24.638;2023-11-25T00:59:27;27.87;;;19.63;;
10463;SDS011;5279;42.048;24.638;2023-11-25T01:01:55;27.63;;;18.83;;
10463;SDS011;5279;42.048;24.638;2023-11-25T01:04:22;34.80;;;22.60;;
10463;SDS011;5279;42.048;24.638;2023-11-25T01:06:50;30.97;;;21.80;;
10463;SDS011;5279;42.048;24.638;2023-11-25T01:09:17;32.60;;;23.07;;
10463;SDS011;5279;42.048;24.638;2023-11-25T01:11:44;34.13;;;23.43;;
10463;SDS011;5279;42.048;24.638;2023-11-25T01:14:11;33.67;;;23.27;;
10463;SDS011;5279;42.048;24.638;2023-11-25T01:16:44;36.63;;;22.50;;
10463;SDS011;5279;42.048;24.638;2023-11-25T01:19:11;30.30;;;22.43;;
10463;SDS011;5279;42.048;24.638;2023-11-25T01:21:38;35.63;;;22.37;;
10463;SDS011;5279;42.048;24.638;2023-11-25T01:24:06;35.90;;;23.03;;
10463;SDS011;5279;42.048;24.638;2023-11-25T01:26:36;38.67;;;26.90;;
10463;SDS011;5279;42.048;24.638;2023-11-25T01:29:03;41.27;;;26.03;;
10463;SDS011;5279;42.048;24.638;2023-11-25T01:31:30;42.23;;;27.97;;
10463;SDS011;5279;42.048;24.638;2023-11-25T01:33:57;44.07;;;28.53;;
10463;SDS011;5279;42.048;24.638;2023-11-25T01:36:24;44.27;;;28.30;;
10463;SDS011;5279;42.048;24.638;2023-11-25T01:38:51;50.33;;;31.87;;
10463;SDS011;5279;42.048;24.638;2023-11-25T01:41:20;49.07;;;29.83;;
10463;SDS011;5279;42.048;24.638;2023-11-25T01:43:48;47.10;;;29.77;;
10463;SDS011;5279;42.048;24.638;2023-11-25T01:46:18;47.23;;;29.87;;
10463;SDS011;5279;42.048;24.638;2023-11-25T01:48:56;41.60;;;26.87;;
10463;SDS011;5279;42.048;24.638;2023-11-25T01:51:24;44.70;;;27.47;;
10463;SDS011;5279;42.048;24.638;2023-11-25T01:53:52;39.33;;;27.00;;
10463;SDS011;5279;42.048;24.638;2023-11-25T01:56:20;41.83;;;25.30;;
10463;SDS011;5279;42.048;24.638;2023-11-25T01:58:49;38.03;;;25.27;;
10463;SDS011;5279;42.048;24.638;2023-11-25T02:01:16;37.97;;;24.43;;
10463;SDS011;5279;42.048;24.638;2023-11-25T02:03:46;38.73;;;23.73;;
10463;SDS011;5279;42.048;24.638;2023-11-25T02:06:12;37.17;;;25.33;;
10463;SDS011;5279;42.048;24.638;2023-11-25T02:08:39;35.83;;;24.33;;
10463;SDS011;5279;42.048;24.638;2023-11-25T02:11:08;34.70;;;22.33;;
10463;SDS011;5279;42.048;24.638;2023-11-25T02:13:36;31.70;;;20.77;;
10463;SDS011;5279;42.048;24.638;2023-11-25T02:16:04;30.07;;;20.40;;
10463;SDS011;5279;42.048;24.638;2023-11-25T02:18:31;27.40;;;18.50;;
10463;SDS011;5279;42.048;24.638;2023-11-25T02:20:58;23.87;;;17.30;;
10463;SDS011;5279;42.048;24.638;2023-11-25T02:23:42;19.90;;;13.43;;
10463;SDS011;5279;42.048;24.638;2023-11-25T02:26:08;25.77;;;17.77;;
10463;SDS011;5279;42.048;24.638;2023-11-25T02:28:35;24.03;;;16.70;;
10463;SDS011;5279;42.048;24.638;2023-11-25T02:31:03;23.53;;;15.27;;
10463;SDS011;5279;42.048;24.638;2023-11-25T02:33:31;26.53;;;18.20;;
10463;SDS011;5279;42.048;24.638;2023-11-25T02:36:00;25.40;;;17.07;;
10463;SDS011;5279;42.048;24.638;2023-11-25T02:38:27;23.33;;;16.90;;
10463;SDS011;5279;42.048;24.638;2023-11-25T02:40:57;24.70;;;18.57;;
10463;SDS011;5279;42.048;24.638;2023-11-25T02:43:23;30.87;;;20.97;;
10463;SDS011;5279;42.048;24.638;2023-11-25T02:45:51;28.27;;;19.50;;
10463;SDS011;5279;42.048;24.638;2023-11-25T02:48:18;28.83;;;20.17;;
10463;SDS011;5279;42.048;24.638;2023-11-25T02:50:48;32.73;;;20.97;;
10463;SDS011;5279;42.048;24.638;2023-11-25T02:53:14;31.60;;;22.10;;
10463;SDS011;5279;42.048;24.638;2023-11-25T02:55:41;31.17;;;21.53;;
10463;SDS011;5279;42.048;24.638;2023-11-25T02:58:10;27.47;;;18.73;;
10463;SDS011;5279;42.048;24.638;2023-11-25T03:00:38;26.87;;;17.83;;
10463;SDS011;5279;42.048;24.638;2023-11-25T03:06:18;28.90;;;18.37;;
10463;SDS011;5279;42.048;24.638;2023-11-25T03:08:48;30.67;;;19.63;;
10463;SDS011;5279;42.048;24.638;2023-11-25T03:11:17;26.93;;;17.97;;
10463;SDS011;5279;42.048;24.638;2023-11-25T03:13:47;32.40;;;20.90;;
10463;SDS011;5279;42.048;24.638;2023-11-25T03:16:14;31.63;;;21.17;;
10463;SDS011;5279;42.048;24.638;2023-11-25T03:18:41;31.77;;;22.10;;
10463;SDS011;5279;42.048;24.638;2023-11-25T03:21:08;36.40;;;21.10;;
10463;SDS011;5279;42.048;24.638;2023-11-25T03:23:38;31.43;;;20.87;;
10463;SDS011;5279;42.048;24.638;2023-11-25T03:26:05;32.33;;;21.60;;
10463;SDS011;5279;42.048;24.638;2023-11-25T03:28:37;26.97;;;19.67;;
10463;SDS011;5279;42.048;24.638;2023-11-25T03:31:05;30.43;;;21.33;;
10463;SDS011;5279;42.048;24.638;2023-11-25T03:33:32;34.77;;;23.37;;
10463;SDS011;5279;42.048;24.638;2023-11-25T03:35:59;36.37;;;23.53;;
10463;SDS011;5279;42.048;24.638;2023-11-25T03:38:26;30.87;;;18.83;;
10463;SDS011;5279;42.048;24.638;2023-11-25T03:40:55;29.23;;;19.80;;
10463;SDS011;5279;42.048;24.638;2023-11-25T03:43:22;32.43;;;21.50;;
10463;SDS011;5279;42.048;24.638;2023-11-25T03:45:49;35.53;;;22.97;;
10463;SDS011;5279;42.048;24.638;2023-11-25T03:48:17;33.27;;;22.70;;
10463;SDS011;5279;42.048;24.638;2023-11-25T03:50:44;34.80;;;23.07;;
10463;SDS011;5279;42.048;24.638;2023-11-25T03:53:11;32.03;;;21.33;;
10463;SDS011;5279;42.048;24.638;2023-11-25T03:55:38;28.73;;;20.27;;
10463;SDS011;5279;42.048;24.638;2023-11-25T03:58:05;35.73;;;20.83;;
10463;SDS011;5279;42.048;24.638;2023-11-25T04:00:32;31.23;;;20.90;;
10463;SDS011;5279;42.048;24.638;2023-11-25T04:02:59;27.37;;;20.40;;
10463;SDS011;5279;42.048;24.638;2023-11-25T04:05:46;32.90;;;21.03;;
10463;SDS011;5279;42.048;24.638;2023-11-25T04:08:12;29.20;;;18.73;;
10463;SDS011;5279;42.048;24.638;2023-11-25T04:10:40;28.87;;;18.17;;
10463;SDS011;5279;42.048;24.638;2023-11-25T04:13:08;30.90;;;20.17;;
10463;SDS011;5279;42.048;24.638;2023-11-25T04:15:35;26.13;;;18.57;;
10463;SDS011;5279;42.048;24.638;2023-11-25T04:18:02;29.93;;;19.60;;
10463;SDS011;5279;42.048;24.638;2023-11-25T04:20:29;31.93;;;20.67;;
10463;SDS011;5279;42.048;24.638;2023-11-25T04:22:59;28.00;;;19.03;;
10463;SDS011;5279;42.048;24.638;2023-11-25T04:25:31;30.37;;;19.67;;
10463;SDS011;5279;42.048;24.638;2023-11-25T04:27:58;24.43;;;16.30;;
10463;SDS011;5279;42.048;24.638;2023-11-25T04:30:29;28.13;;;17.90;;
10463;SDS011;5279;42.048;24.638;2023-11-25T04:32:56;25.37;;;16.27;;
10463;SDS011;5279;42.048;24.638;2023-11-25T04:35:24;26.73;;;16.93;;
10463;SDS011;5279;42.048;24.638;2023-11-25T04:37:51;25.47;;;16.47;;
10463;SDS011;5279;42.048;24.638;2023-11-25T04:40:19;21.57;;;15.43;;
10463;SDS011;5279;42.048;24.638;2023-11-25T04:42:46;26.43;;;16.07;;
10463;SDS011;5279;42.048;24.638;2023-11-25T04:45:13;24.37;;;15.80;;
10463;SDS011;5279;42.048;24.638;2023-11-25T04:47:43;25.33;;;16.40;;
10463;SDS011;5279;42.048;24.638;2023-11-25T04:50:10;22.70;;;16.70;;
10463;SDS011;5279;42.048;24.638;2023-11-25T04:52:38;22.37;;;14.57;;
10463;SDS011;5279;42.048;24.638;2023-11-25T04:55:05;22.57;;;15.07;;
10463;SDS011;5279;42.048;24.638;2023-11-25T04:57:35;24.23;;;16.03;;
10463;SDS011;5279;42.048;24.638;2023-11-25T05:00:02;19.20;;;14.10;;
10463;SDS011;5279;42.048;24.638;2023-11-25T05:02:34;22.77;;;15.33;;
10463;SDS011;5279;42.048;24.638;2023-11-25T05:05:01;20.27;;;14.33;;
10463;SDS011;5279;42.048;24.638;2023-11-25T05:07:28;18.93;;;13.73;;
10463;SDS011;5279;42.048;24.638;2023-11-25T05:09:54;25.20;;;14.30;;
10463;SDS011;5279;42.048;24.638;2023-11-25T05:12:21;22.37;;;14.13;;
10463;SDS011;5279;42.048;24.638;2023-11-25T05:14:50;16.57;;;12.47;;
10463;SDS011;5279;42.048;24.638;2023-11-25T05:17:17;19.87;;;12.47;;
10463;SDS011;5279;42.048;24.638;2023-11-25T05:19:44;24.83;;;13.97;;
10463;SDS011;5279;42.048;24.638;2023-11-25T05:22:11;19.23;;;13.20;;
10463;SDS011;5279;42.048;24.638;2023-11-25T05:24:39;18.87;;;11.77;;
10463;SDS011;5279;42.048;24.638;2023-11-25T05:27:06;16.47;;;11.53;;
10463;SDS011;5279;42.048;24.638;2023-11-25T05:29:32;16.30;;;10.97;;
10463;SDS011;5279;42.048;24.638;2023-11-25T05:32:01;16.43;;;11.13;;
10463;SDS011;5279;42.048;24.638;2023-11-25T05:34:29;17.33;;;11.10;;
10463;SDS011;5279;42.048;24.638;2023-11-25T05:36:55;16.17;;;12.00;;
10463;SDS011;5279;42.048;24.638;2023-11-25T05:39:22;20.67;;;12.43;;
10463;SDS011;5279;42.048;24.638;2023-11-25T05:41:49;19.73;;;11.73;;
10463;SDS011;5279;42.048;24.638;2023-11-25T05:44:16;17.93;;;11.53;;
10463;SDS011;5279;42.048;24.638;2023-11-25T05:46:45;16.60;;;11.70;;
10463;SDS011;5279;42.048;24.638;2023-11-25T05:49:13;19.10;;;12.50;;
10463;SDS011;5279;42.048;24.638;2023-11-25T05:51:40;19.40;;;12.83;;
10463;SDS011;5279;42.048;24.638;2023-11-25T05:54:07;22.80;;;14.60;;
10463;SDS011;5279;42.048;24.638;2023-11-25T05:56:38;17.17;;;12.17;;
10463;SDS011;5279;42.048;24.638;2023-11-25T05:59:05;15.00;;;11.77;;
10463;SDS011;5279;42.048;24.638;2023-11-25T06:01:33;17.10;;;11.90;;
10463;SDS011;5279;42.048;24.638;2023-11-25T06:04:00;15.13;;;12.23;;
10463;SDS011;5279;42.048;24.638;2023-11-25T06:06:28;20.60;;;12.63;;
10463;SDS011;5279;42.048;24.638;2023-11-25T06:08:55;13.37;;;9.27;;
10463;SDS011;5279;42.048;24.638;2023-11-25T06:11:22;11.47;;;9.43;;
10463;SDS011;5279;42.048;24.638;2023-11-25T06:13:51;16.47;;;10.83;;
10463;SDS011;5279;42.048;24.638;2023-11-25T06:16:19;13.47;;;10.63;;
10463;SDS011;5279;42.048;24.638;2023-11-25T06:18:46;15.33;;;11.93;;
10463;SDS011;5279;42.048;24.638;2023-11-25T06:21:13;17.37;;;11.33;;
10463;SDS011;5279;42.048;24.638;2023-11-25T06:23:42;18.53;;;11.20;;
10463;SDS011;5279;42.048;24.638;2023-11-25T06:26:09;17.47;;;11.93;;
10463;SDS011;5279;42.048;24.638;2023-11-25T06:28:38;20.77;;;14.47;;
10463;SDS011;5279;42.048;24.638;2023-11-25T06:31:07;19.97;;;12.07;;
10463;SDS011;5279;42.048;24.638;2023-11-25T06:33:35;13.57;;;9.73;;
10463;SDS011;5279;42.048;24.638;2023-11-25T06:36:02;14.80;;;10.73;;
10463;SDS011;5279;42.048;24.638;2023-11-25T06:38:29;15.97;;;10.03;;
10463;SDS011;5279;42.048;24.638;2023-11-25T06:40:57;12.67;;;8.50;;
10463;SDS011;5279;42.048;24.638;2023-11-25T06:43:25;10.93;;;8.83;;
10463;SDS011;5279;42.048;24.638;2023-11-25T06:45:52;12.97;;;8.93;;
10463;SDS011;5279;42.048;24.638;2023-11-25T06:48:19;13.70;;;9.23;;
10463;SDS011;5279;42.048;24.638;2023-11-25T06:50:48;13.03;;;8.67;;
10463;SDS011;5279;42.048;24.638;2023-11-25T08:37:15;13.20;;;10.23;;
10463;SDS011;5279;42.048;24.638;2023-11-25T08:39:42;16.53;;;12.60;;
10463;SDS011;5279;42.048;24.638;2023-11-25T08:42:11;43.43;;;24.83;;
10463;SDS011;5279;42.048;24.638;2023-11-25T08:44:39;34.93;;;21.13;;
10463;SDS011;5279;42.048;24.638;2023-11-25T08:47:10;39.00;;;22.60;;
10463;SDS011;5279;42.048;24.638;2023-11-25T08:49:37;10.83;;;8.87;;
10463;SDS011;5279;42.048;24.638;2023-11-25T08:52:04;26.27;;;17.60;;
10463;SDS011;5279;42.048;24.638;2023-11-25T08:54:32;7.37;;;4.37;;
10463;SDS011;5279;42.048;24.638;2023-11-25T08:57:02;5.33;;;3.67;;
10463;SDS011;5279;42.048;24.638;2023-11-25T08:59:32;5.07;;;4.27;;
10463;SDS011;5279;42.048;24.638;2023-11-25T09:01:59;2.93;;;2.73;;
10463;SDS011;5279;42.048;24.638;2023-11-25T09:04:29;5.30;;;4.43;;
10463;SDS011;5279;42.048;24.638;2023-11-25T09:07:00;4.73;;;3.53;;
10463;SDS011;5279;42.048;24.638;2023-11-25T09:09:27;3.60;;;2.17;;
10463;SDS011;5279;42.048;24.638;2023-11-25T09:11:55;1.00;;;1.00;;
10463;SDS011;5279;42.048;24.638;2023-11-25T09:14:23;1.40;;;1.30;;
10463;SDS011;5279;42.048;24.638;2023-11-25T09:16:50;1.13;;;1.03;;
10463;SDS011;5279;42.048;24.638;2023-11-25T09:19:16;2.90;;;1.50;;
10463;SDS011;5279;42.048;24.638;2023-11-25T09:21:43;1.27;;;0.67;;
10463;SDS011;5279;42.048;24.638;2023-11-25T09:24:11;2.27;;;0.70;;
10463;SDS011;5279;42.048;24.638;2023-11-25T09:26:37;0.93;;;0.80;;
10463;SDS011;5279;42.048;24.638;2023-11-25T09:29:06;0.70;;;0.70;;
10463;SDS011;5279;42.048;24.638;2023-11-25T09:31:32;1.20;;;1.10;;
10463;SDS011;5279;42.048;24.638;2023-11-25T09:33:59;0.83;;;0.83;;
10463;SDS011;5279;42.048;24.638;2023-11-25T09:39:42;0.83;;;0.50;;
10463;SDS011;5279;42.048;24.638;2023-11-25T09:42:09;2.40;;;2.10;;
10463;SDS011;5279;42.048;24.638;2023-11-25T09:44:38;0.67;;;0.67;;
10463;SDS011;5279;42.048;24.638;2023-11-25T09:47:07;2.70;;;2.20;;
10463;SDS011;5279;42.048;24.638;2023-11-25T09:49:34;11.87;;;8.00;;
10463;SDS011;5279;42.048;24.638;2023-11-25T09:52:01;4.00;;;2.93;;
10463;SDS011;5279;42.048;24.638;2023-11-25T09:54:29;0.50;;;0.50;;
10463;SDS011;5279;42.048;24.638;2023-11-25T09:56:57;2.60;;;1.13;;
10463;SDS011;5279;42.048;24.638;2023-11-25T09:59:26;0.30;;;0.30;;
10463;SDS011;5279;42.048;24.638;2023-11-25T10:01:55;0.80;;;0.80;;
10463;SDS011;5279;42.048;24.638;2023-11-25T10:04:23;12.93;;;4.87;;
10463;SDS011;5279;42.048;24.638;2023-11-25T10:06:52;2.30;;;0.90;;
10463;SDS011;5279;42.048;24.638;2023-11-25T10:09:20;0.40;;;0.40;;
10463;SDS011;5279;42.048;24.638;2023-11-25T10:11:48;6.27;;;2.50;;
10463;SDS011;5279;42.048;24.638;2023-11-25T10:14:16;1.00;;;0.90;;
10463;SDS011;5279;42.048;24.638;2023-11-25T10:16:43;12.10;;;6.33;;
10463;SDS011;5279;42.048;24.638;2023-11-25T10:19:19;0.70;;;0.70;;
10463;SDS011;5279;42.048;24.638;2023-11-25T10:21:47;0.60;;;0.60;;
10463;SDS011;5279;42.048;24.638;2023-11-25T10:24:15;1.17;;;0.70;;
10463;SDS011;5279;42.048;24.638;2023-11-25T10:26:43;1.00;;;0.90;;
10463;SDS011;5279;42.048;24.638;2023-11-25T10:29:12;0.60;;;0.60;;
10463;SDS011;5279;42.048;24.638;2023-11-25T10:31:40;9.10;;;5.83;;
10463;SDS011;5279;42.048;24.638;2023-11-25T10:34:08;0.87;;;0.83;;
10463;SDS011;5279;42.048;24.638;2023-11-25T10:36:39;1.90;;;1.33;;
10463;SDS011;5279;42.048;24.638;2023-11-25T10:39:06;0.50;;;0.40;;
10463;SDS011;5279;42.048;24.638;2023-11-25T10:41:34;1.90;;;0.87;;
10463;SDS011;5279;42.048;24.638;2023-11-25T10:44:03;0.83;;;0.80;;
10463;SDS011;5279;42.048;24.638;2023-11-25T10:46:36;0.60;;;0.60;;
10463;SDS011;5279;42.048;24.638;2023-11-25T10:49:11;1.53;;;1.30;;
10463;SDS011;5279;42.048;24.638;2023-11-25T10:51:41;1.80;;;1.53;;
10463;SDS011;5279;42.048;24.638;2023-11-25T11:37:21;0.43;;;0.43;;
10463;SDS011;5279;42.048;24.638;2023-11-25T11:39:55;0.47;;;0.47;;
10463;SDS011;5279;42.048;24.638;2023-11-25T11:42:27;0.50;;;0.50;;
10463;SDS011;5279;42.048;24.638;2023-11-25T11:45:00;0.73;;;0.63;;
10463;SDS011;5279;42.048;24.638;2023-11-25T11:47:43;1.00;;;0.53;;
10463;SDS011;5279;42.048;24.638;2023-11-25T11:54:26;0.67;;;0.60;;
10463;SDS011;5279;42.048;24.638;2023-11-25T11:57:00;2.57;;;0.70;;
10463;SDS011;5279;42.048;24.638;2023-11-25T12:02:36;0.60;;;0.60;;
10463;SDS011;5279;42.048;24.638;2023-11-25T12:05:07;0.50;;;0.50;;
10463;SDS011;5279;42.048;24.638;2023-11-25T12:07:34;0.50;;;0.50;;
10463;SDS011;5279;42.048;24.638;2023-11-25T12:10:03;0.47;;;0.47;;
10463;SDS011;5279;42.048;24.638;2023-11-25T12:12:30;0.50;;;0.50;;
10463;SDS011;5279;42.048;24.638;2023-11-25T12:14:59;0.60;;;0.60;;
10463;SDS011;5279;42.048;24.638;2023-11-25T12:17:26;0.50;;;0.50;;
10463;SDS011;5279;42.048;24.638;2023-11-25T12:19:53;0.60;;;0.60;;
10463;SDS011;5279;42.048;24.638;2023-11-25T12:22:20;0.60;;;0.60;;
10463;SDS011;5279;42.048;24.638;2023-11-25T12:24:48;0.50;;;0.50;;
10463;SDS011;5279;42.048;24.638;2023-11-25T12:27:17;1.33;;;0.57;;
10463;SDS011;5279;42.048;24.638;2023-11-25T12:29:47;0.50;;;0.50;;
10463;SDS011;5279;42.048;24.638;2023-11-25T12:32:15;0.43;;;0.43;;
10463;SDS011;5279;42.048;24.638;2023-11-25T12:34:41;0.40;;;0.40;;
10463;SDS011;5279;42.048;24.638;2023-11-25T12:37:10;0.73;;;0.67;;
10463;SDS011;5279;42.048;24.638;2023-11-25T12:39:38;0.70;;;0.70;;
10463;SDS011;5279;42.048;24.638;2023-11-25T12:42:05;0.70;;;0.70;;
10463;SDS011;5279;42.048;24.638;2023-11-25T12:47:16;4.93;;;0.70;;
10463;SDS011;5279;42.048;24.638;2023-11-25T12:49:44;0.50;;;0.50;;
10463;SDS011;5279;42.048;24.638;2023-11-25T12:52:19;1.13;;;0.50;;
10463;SDS011;5279;42.048;24.638;2023-11-25T12:54:48;0.80;;;0.80;;
10463;SDS011;5279;42.048;24.638;2023-11-25T12:57:17;3.33;;;3.03;;
10463;SDS011;5279;42.048;24.638;2023-11-25T12:59:44;1.87;;;1.77;;
10463;SDS011;5279;42.048;24.638;2023-11-25T13:02:13;12.87;;;7.30;;
10463;SDS011;5279;42.048;24.638;2023-11-25T13:04:42;4.10;;;3.63;;
10463;SDS011;5279;42.048;24.638;2023-11-25T13:07:26;2.70;;;2.50;;
10463;SDS011;5279;42.048;24.638;2023-11-25T13:09:53;1.23;;;1.13;;
10463;SDS011;5279;42.048;24.638;2023-11-25T13:12:20;1.63;;;1.00;;
10463;SDS011;5279;42.048;24.638;2023-11-25T13:14:50;1.03;;;1.00;;
10463;SDS011;5279;42.048;24.638;2023-11-25T13:17:18;1.63;;;1.53;;
10463;SDS011;5279;42.048;24.638;2023-11-25T13:19:45;4.00;;;2.83;;
10463;SDS011;5279;42.048;24.638;2023-11-25T13:22:12;6.17;;;3.93;;
10463;SDS011;5279;42.048;24.638;2023-11-25T13:24:42;5.27;;;3.50;;
10463;SDS011;5279;42.048;24.638;2023-11-25T13:27:10;4.50;;;3.47;;
10463;SDS011;5279;42.048;24.638;2023-11-25T13:29:38;1.37;;;1.27;;
10463;SDS011;5279;42.048;24.638;2023-11-25T13:32:07;0.93;;;0.93;;
10463;SDS011;5279;42.048;24.638;2023-11-25T13:34:37;0.80;;;0.80;;
10463;SDS011;5279;42.048;24.638;2023-11-25T13:37:05;0.80;;;0.80;;
10463;SDS011;5279;42.048;24.638;2023-11-25T13:39:32;1.20;;;1.10;;
10463;SDS011;5279;42.048;24.638;2023-11-25T13:42:00;1.00;;;0.90;;
10463;SDS011;5279;42.048;24.638;2023-11-25T13:44:29;1.00;;;1.00;;
10463;SDS011;5279;42.048;24.638;2023-11-25T13:46:56;0.90;;;0.90;;
10463;SDS011;5279;42.048;24.638;2023-11-25T13:49:23;0.80;;;0.80;;
10463;SDS011;5279;42.048;24.638;2023-11-25T13:51:55;0.83;;;0.83;;
10463;SDS011;5279;42.048;24.638;2023-11-25T13:54:22;0.70;;;0.70;;
10463;SDS011;5279;42.048;24.638;2023-11-25T13:56:50;0.90;;;0.90;;
10463;SDS011;5279;42.048;24.638;2023-11-25T13:59:17;0.93;;;0.93;;
10463;SDS011;5279;42.048;24.638;2023-11-25T14:01:44;0.70;;;0.70;;
10463;SDS011;5279;42.048;24.638;2023-11-25T14:04:11;0.77;;;0.77;;
10463;SDS011;5279;42.048;24.638;2023-11-25T14:06:38;1.87;;;0.90;;
10463;SDS011;5279;42.048;24.638;2023-11-25T14:09:06;0.80;;;0.80;;
10463;SDS011;5279;42.048;24.638;2023-11-25T14:11:36;0.93;;;0.93;;
10463;SDS011;5279;42.048;24.638;2023-11-25T14:14:03;0.70;;;0.70;;
10463;SDS011;5279;42.048;24.638;2023-11-25T14:16:30;1.50;;;1.40;;
10463;SDS011;5279;42.048;24.638;2023-11-25T14:21:59;0.70;;;0.70;;
10463;SDS011;5279;42.048;24.638;2023-11-25T14:24:27;9.30;;;4.77;;
10463;SDS011;5279;42.048;24.638;2023-11-25T14:26:54;2.03;;;1.17;;
10463;SDS011;5279;42.048;24.638;2023-11-25T14:29:21;2.43;;;1.20;;
10463;SDS011;5279;42.048;24.638;2023-11-25T14:31:48;29.00;;;15.57;;
10463;SDS011;5279;42.048;24.638;2023-11-25T14:34:14;2.57;;;1.90;;
10463;SDS011;5279;42.048;24.638;2023-11-25T14:36:41;2.50;;;2.30;;
10463;SDS011;5279;42.048;24.638;2023-11-25T14:39:08;1.40;;;1.20;;
10463;SDS011;5279;42.048;24.638;2023-11-25T14:41:37;2.87;;;1.80;;
10463;SDS011;5279;42.048;24.638;2023-11-25T14:44:04;1.70;;;1.30;;
10463;SDS011;5279;42.048;24.638;2023-11-25T14:46:31;0.90;;;0.90;;
10463;SDS011;5279;42.048;24.638;2023-11-25T14:48:58;0.90;;;0.90;;
10463;SDS011;5279;42.048;24.638;2023-11-25T14:51:26;1.10;;;0.90;;
10463;SDS011;5279;42.048;24.638;2023-11-25T14:53:53;1.10;;;1.00;;
10463;SDS011;5279;42.048;24.638;2023-11-25T14:56:20;1.30;;;1.20;;
10463;SDS011;5279;42.048;24.638;2023-11-25T14:58:50;2.03;;;1.70;;
10463;SDS011;5279;42.048;24.638;2023-11-25T15:01:17;0.90;;;0.90;;
10463;SDS011;5279;42.048;24.638;2023-11-25T15:03:43;0.80;;;0.80;;
10463;SDS011;5279;42.048;24.638;2023-11-25T15:06:10;1.40;;;1.10;;
10463;SDS011;5279;42.048;24.638;2023-11-25T15:08:37;1.20;;;1.10;;
10463;SDS011;5279;42.048;24.638;2023-11-25T15:11:04;0.70;;;0.70;;
10463;SDS011;5279;42.048;24.638;2023-11-25T15:13:31;0.90;;;0.80;;
10463;SDS011;5279;42.048;24.638;2023-11-25T15:16:00;0.80;;;0.80;;
10463;SDS011;5279;42.048;24.638;2023-11-25T15:18:27;1.27;;;0.90;;
10463;SDS011;5279;42.048;24.638;2023-11-25T15:20:54;1.00;;;1.00;;
10463;SDS011;5279;42.048;24.638;2023-11-25T15:23:21;47.80;;;24.17;;
10463;SDS011;5279;42.048;24.638;2023-11-25T15:25:49;7.70;;;4.17;;
10463;SDS011;5279;42.048;24.638;2023-11-25T15:28:15;3.00;;;1.90;;
10463;SDS011;5279;42.048;24.638;2023-11-25T15:30:42;0.83;;;0.83;;
10463;SDS011;5279;42.048;24.638;2023-11-25T15:33:11;0.80;;;0.80;;
10463;SDS011;5279;42.048;24.638;2023-11-25T15:35:38;0.83;;;0.83;;
10463;SDS011;5279;42.048;24.638;2023-11-25T15:38:05;1.13;;;1.10;;
10463;SDS011;5279;42.048;24.638;2023-11-25T15:40:32;1.43;;;0.93;;
10463;SDS011;5279;42.048;24.638;2023-11-25T15:42:59;0.80;;;0.80;;
10463;SDS011;5279;42.048;24.638;2023-11-25T15:45:26;1.20;;;1.10;;
10463;SDS011;5279;42.048;24.638;2023-11-25T15:47:53;0.80;;;0.80;;
10463;SDS011;5279;42.048;24.638;2023-11-25T15:50:21;2.00;;;1.60;;
10463;SDS011;5279;42.048;24.638;2023-11-25T15:52:49;3.90;;;3.47;;
10463;SDS011;5279;42.048;24.638;2023-11-25T15:55:15;13.23;;;10.10;;
10463;SDS011;5279;42.048;24.638;2023-11-25T15:57:42;6.13;;;5.53;;
10463;SDS011;5279;42.048;24.638;2023-11-25T16:00:09;3.10;;;2.70;;
10463;SDS011;5279;42.048;24.638;2023-11-25T16:02:39;2.30;;;2.10;;
10463;SDS011;5279;42.048;24.638;2023-11-25T16:05:07;2.03;;;1.90;;
10463;SDS011;5279;42.048;24.638;2023-11-25T16:07:38;2.00;;;1.80;;
10463;SDS011;5279;42.048;24.638;2023-11-25T16:10:06;3.20;;;1.90;;
10463;SDS011;5279;42.048;24.638;2023-11-25T16:12:35;2.60;;;2.40;;
10463;SDS011;5279;42.048;24.638;2023-11-25T16:15:02;2.00;;;1.90;;
10463;SDS011;5279;42.048;24.638;2023-11-25T16:17:30;1.70;;;1.60;;
10463;SDS011;5279;42.048;24.638;2023-11-25T16:19:57;1.57;;;1.47;;
10463;SDS011;5279;42.048;24.638;2023-11-25T16:22:24;1.47;;;1.37;;
10463;SDS011;5279;42.048;24.638;2023-11-25T16:24:53;1.50;;;1.40;;
10463;SDS011;5279;42.048;24.638;2023-11-25T16:27:20;1.70;;;1.60;;
10463;SDS011;5279;42.048;24.638;2023-11-25T16:29:47;1.60;;;1.50;;
10463;SDS011;5279;42.048;24.638;2023-11-25T16:32:15;2.30;;;1.67;;
10463;SDS011;5279;42.048;24.638;2023-11-25T16:34:44;1.40;;;1.30;;
10463;SDS011;5279;42.048;24.638;2023-11-25T16:37:11;2.20;;;1.90;;
10463;SDS011;5279;42.048;24.638;2023-11-25T16:39:38;1.80;;;1.57;;
10463;SDS011;5279;42.048;24.638;2023-11-25T16:42:06;1.60;;;1.50;;
10463;SDS011;5279;42.048;24.638;2023-11-25T16:44:33;3.80;;;2.77;;
10463;SDS011;5279;42.048;24.638;2023-11-25T16:47:00;3.13;;;2.13;;
10463;SDS011;5279;42.048;24.638;2023-11-25T16:49:27;8.30;;;6.73;;
10463;SDS011;5279;42.048;24.638;2023-11-25T16:51:54;4.30;;;1.90;;
10463;SDS011;5279;42.048;24.638;2023-11-25T16:54:23;1.60;;;1.50;;
10463;SDS011;5279;42.048;24.638;2023-11-25T16:56:50;1.00;;;1.00;;
10463;SDS011;5279;42.048;24.638;2023-11-25T16:59:19;1.00;;;0.90;;
10463;SDS011;5279;42.048;24.638;2023-11-25T17:01:47;0.80;;;0.80;;
10463;SDS011;5279;42.048;24.638;2023-11-25T17:04:17;0.80;;;0.80;;
10463;SDS011;5279;42.048;24.638;2023-11-25T17:06:44;1.10;;;1.10;;
10463;SDS011;5279;42.048;24.638;2023-11-25T17:09:11;0.80;;;0.80;;
10463;SDS011;5279;42.048;24.638;2023-11-25T17:11:38;0.70;;;0.70;;
10463;SDS011;5279;42.048;24.638;2023-11-25T17:14:05;0.70;;;0.70;;
10463;SDS011;5279;42.048;24.638;2023-11-25T17:16:34;1.20;;;0.80;;
10463;SDS011;5279;42.048;24.638;2023-11-25T17:19:01;0.63;;;0.63;;
10463;SDS011;5279;42.048;24.638;2023-11-25T17:21:28;0.70;;;0.70;;
10463;SDS011;5279;42.048;24.638;2023-11-25T17:23:55;0.80;;;0.80;;
10463;SDS011;5279;42.048;24.638;2023-11-25T17:26:24;0.73;;;0.63;;